createdAt,value
2018-04-22T00:01:11.309Z,19.43
2018-04-22T00:03:38.896Z,20.97
2018-04-22T00:06:06.565Z,18.00
2018-04-22T00:08:34.943Z,19.60
2018-04-22T00:11:03.767Z,21.27
2018-04-22T00:13:31.493Z,21.00
2018-04-22T00:15:59.836Z,16.57
2018-04-22T00:18:27.426Z,21.13
2018-04-22T00:20:55.793Z,22.50
2018-04-22T00:23:23.391Z,21.73
2018-04-22T00:25:50.953Z,26.00
2018-04-22T00:28:18.548Z,19.23
2018-04-22T00:30:46.128Z,18.13
2018-04-22T00:33:13.716Z,25.43
2018-04-22T00:35:42.038Z,18.60
2018-04-22T00:38:09.729Z,17.70
2018-04-22T00:40:37.337Z,16.40
2018-04-22T00:43:04.905Z,22.80
2018-04-22T00:45:32.516Z,19.60
2018-04-22T00:48:00.867Z,19.03
2018-04-22T00:50:28.468Z,24.17
2018-04-22T00:52:56.987Z,23.77
2018-04-22T00:55:24.575Z,19.10
2018-04-22T00:57:52.174Z,24.63
2018-04-22T01:00:19.792Z,22.80
2018-04-22T01:02:47.474Z,26.20
2018-04-22T01:05:15.821Z,26.63
2018-04-22T01:10:18.271Z,21.23
2018-04-22T01:12:45.833Z,17.23
2018-04-22T01:15:13.396Z,18.83
2018-04-22T01:17:41.157Z,17.10
2018-04-22T01:20:08.753Z,19.40
2018-04-22T01:22:36.378Z,21.00
2018-04-22T01:25:04.132Z,19.20
2018-04-22T01:27:31.737Z,24.27
2018-04-22T01:29:59.317Z,21.00
2018-04-22T01:32:27.798Z,18.90
2018-04-22T01:34:56.121Z,19.73
2018-04-22T01:37:23.778Z,18.67
2018-04-22T01:39:51.341Z,23.00
2018-04-22T01:42:19.056Z,24.53
2018-04-22T01:44:47.417Z,19.03
2018-04-22T01:47:15.139Z,26.30
2018-04-22T01:49:42.793Z,20.23
2018-04-22T01:52:10.500Z,20.00
2018-04-22T01:54:38.216Z,19.47
2018-04-22T01:57:05.816Z,18.53
2018-04-22T01:59:33.374Z,17.67
2018-04-22T02:02:00.966Z,28.57
2018-04-22T02:04:29.312Z,17.30
2018-04-22T02:06:56.896Z,25.00
2018-04-22T02:09:25.229Z,24.43
2018-04-22T02:11:52.917Z,19.17
2018-04-22T02:14:21.249Z,18.37
2018-04-22T02:16:48.934Z,17.17
2018-04-22T02:19:16.497Z,18.53
2018-04-22T02:21:44.090Z,19.53
2018-04-22T02:24:12.426Z,21.03
2018-04-22T02:26:40.049Z,21.27
2018-04-22T02:29:07.749Z,19.87
2018-04-22T02:31:35.314Z,18.13
2018-04-22T02:34:02.905Z,23.60
2018-04-22T02:36:31.240Z,18.70
2018-04-22T02:38:58.840Z,20.37
2018-04-22T02:41:26.421Z,17.63
2018-04-22T02:43:54.009Z,16.07
2018-04-22T02:46:21.569Z,18.30
2018-04-22T02:48:49.317Z,16.30
2018-04-22T02:51:16.869Z,17.50
2018-04-22T02:53:44.472Z,16.77
2018-04-22T02:56:12.287Z,20.93
2018-04-22T02:58:39.885Z,16.00
2018-04-22T03:01:07.467Z,16.30
2018-04-22T03:03:35.836Z,18.70
2018-04-22T03:06:04.185Z,21.57
2018-04-22T03:08:31.744Z,15.90
2018-04-22T03:10:59.330Z,20.00
2018-04-22T03:13:27.665Z,19.87
2018-04-22T03:15:55.248Z,21.50
2018-04-22T03:18:22.808Z,16.60
2018-04-22T03:20:50.522Z,17.10
2018-04-22T03:23:18.081Z,18.07
2018-04-22T03:25:45.679Z,20.23
2018-04-22T03:28:13.269Z,19.73
2018-04-22T03:30:41.636Z,19.27
2018-04-22T03:33:10.163Z,19.37
2018-04-22T03:35:37.737Z,20.90
2018-04-22T03:38:05.428Z,16.77
2018-04-22T03:40:33.089Z,16.30
2018-04-22T03:43:00.678Z,22.23
2018-04-22T03:45:28.237Z,20.20
2018-04-22T03:47:55.965Z,21.10
2018-04-22T03:50:23.532Z,23.40
2018-04-22T03:52:51.133Z,20.30
2018-04-22T03:55:18.693Z,19.30
2018-04-22T03:57:46.290Z,24.80
2018-04-22T04:00:13.849Z,18.80
2018-04-22T04:02:41.454Z,20.70
2018-04-22T04:05:09.051Z,18.83
2018-04-22T04:07:36.900Z,17.77
2018-04-22T04:10:04.541Z,18.50
2018-04-22T04:12:32.149Z,18.70
2018-04-22T04:15:00.482Z,20.53
2018-04-22T04:17:28.209Z,22.13
2018-04-22T04:20:08.745Z,19.10
2018-04-22T04:22:43.402Z,19.03
2018-04-22T04:28:11.936Z,26.10
2018-04-22T04:30:39.565Z,18.13
2018-04-22T04:33:07.097Z,17.70
2018-04-22T04:35:34.704Z,18.20
2018-04-22T04:38:02.348Z,21.20
2018-04-22T04:40:29.938Z,17.97
2018-04-22T04:42:57.515Z,23.60
2018-04-22T04:45:25.134Z,21.63
2018-04-22T04:47:52.756Z,21.30
2018-04-22T04:50:20.341Z,21.60
2018-04-22T04:52:48.674Z,21.13
2018-04-22T04:55:16.366Z,22.13
2018-04-22T04:57:44.722Z,19.20
2018-04-22T05:00:12.283Z,21.17
2018-04-22T05:02:40.049Z,26.73
2018-04-22T05:05:07.618Z,18.10
2018-04-22T05:07:35.973Z,23.07
2018-04-22T05:10:03.537Z,21.73
2018-04-22T05:12:31.181Z,28.43
2018-04-22T05:14:58.821Z,29.67
2018-04-22T05:17:26.418Z,23.83
2018-04-22T05:19:54.206Z,31.70
2018-04-22T05:22:22.569Z,20.13
2018-04-22T05:24:50.128Z,27.77
2018-04-22T05:27:17.737Z,23.30
2018-04-22T05:29:45.293Z,24.67
2018-04-22T05:32:12.854Z,25.87
2018-04-22T05:34:40.507Z,23.70
2018-04-22T05:37:08.117Z,29.23
2018-04-22T05:39:36.654Z,22.13
2018-04-22T05:42:04.229Z,26.03
2018-04-22T05:44:31.927Z,24.60
2018-04-22T05:47:00.364Z,26.67
2018-04-22T05:49:27.945Z,27.23
2018-04-22T05:51:55.525Z,26.50
2018-04-22T05:54:23.882Z,24.40
2018-04-22T05:56:51.434Z,25.60
2018-04-22T05:59:19.128Z,21.70
2018-04-22T06:01:47.522Z,25.80
2018-04-22T06:04:15.229Z,20.90
2018-04-22T06:06:42.793Z,26.07
2018-04-22T06:09:10.537Z,20.70
2018-04-22T06:11:38.098Z,20.70
2018-04-22T06:14:05.769Z,25.00
2018-04-22T06:16:33.456Z,23.23
2018-04-22T06:19:01.038Z,24.50
2018-04-22T06:21:28.594Z,23.70
2018-04-22T06:23:56.986Z,20.43
2018-04-22T06:26:24.653Z,23.40
2018-04-22T06:28:52.353Z,23.50
2018-04-22T06:31:19.982Z,20.03
2018-04-22T06:33:47.550Z,23.90
2018-04-22T06:36:15.191Z,22.70
2018-04-22T06:38:42.753Z,22.70
2018-04-22T06:41:10.419Z,24.40
2018-04-22T06:43:38.021Z,23.70
2018-04-22T06:46:05.686Z,19.43
2018-04-22T06:48:33.359Z,24.03
2018-04-22T06:51:01.681Z,20.13
2018-04-22T06:53:29.298Z,28.07
2018-04-22T06:55:57.661Z,20.67
2018-04-22T06:58:25.269Z,22.07
2018-04-22T07:00:52.849Z,20.70
2018-04-22T07:03:20.449Z,25.27
2018-04-22T07:05:48.793Z,23.00
2018-04-22T07:08:16.529Z,22.40
2018-04-22T07:10:44.093Z,23.33
2018-04-22T07:13:11.790Z,22.67
2018-04-22T07:15:39.475Z,16.93
2018-04-22T07:18:07.823Z,16.83
2018-04-22T07:20:35.401Z,17.50
2018-04-22T07:23:03.784Z,17.30
2018-04-22T07:25:32.123Z,18.53
2018-04-22T07:27:59.686Z,16.10
2018-04-22T07:30:27.387Z,21.10
2018-04-22T07:32:55.733Z,23.20
2018-04-22T07:35:23.342Z,18.77
2018-04-22T07:37:50.901Z,19.40
2018-04-22T07:40:18.678Z,19.03
2018-04-22T07:42:46.270Z,17.63
2018-04-22T07:45:13.894Z,16.10
2018-04-22T07:47:41.480Z,15.23
2018-04-22T07:50:09.072Z,18.10
2018-04-22T07:52:37.400Z,14.13
2018-04-22T07:55:04.989Z,16.17
2018-04-22T07:57:32.566Z,24.07
2018-04-22T08:00:01.141Z,15.03
2018-04-22T08:02:29.554Z,17.10
2018-04-22T08:04:57.158Z,16.67
2018-04-22T08:07:25.489Z,14.27
2018-04-22T08:09:53.206Z,14.30
2018-04-22T08:12:20.773Z,15.13
2018-04-22T08:14:49.243Z,15.27
2018-04-22T08:17:16.827Z,14.90
2018-04-22T08:19:45.197Z,16.33
2018-04-22T08:22:13.547Z,13.17
2018-04-22T08:24:41.146Z,17.97
2018-04-22T08:27:08.946Z,12.67
2018-04-22T08:29:36.541Z,14.50
2018-04-22T08:32:04.136Z,12.40
2018-04-22T08:34:31.713Z,16.47
2018-04-22T08:36:59.318Z,15.63
2018-04-22T08:39:26.877Z,14.27
2018-04-22T08:41:54.493Z,16.30
2018-04-22T08:44:22.096Z,13.17
2018-04-22T08:46:50.661Z,12.40
2018-04-22T08:49:18.264Z,12.27
2018-04-22T08:51:45.891Z,13.90
2018-04-22T08:54:13.505Z,21.53
2018-04-22T08:56:41.192Z,14.07
2018-04-22T08:59:08.800Z,12.70
2018-04-22T09:01:36.371Z,15.17
2018-04-22T09:04:03.980Z,12.17
2018-04-22T09:06:31.557Z,12.83
2018-04-22T09:08:59.908Z,12.90
2018-04-22T09:11:27.505Z,14.60
2018-04-22T09:13:56.106Z,18.07
2018-04-22T09:16:23.724Z,12.00
2018-04-22T09:18:51.389Z,11.10
2018-04-22T09:21:19.846Z,11.47
2018-04-22T09:23:47.544Z,11.73
2018-04-22T09:26:15.919Z,10.40
2018-04-22T09:28:44.264Z,10.73
2018-04-22T09:31:11.860Z,10.57
2018-04-22T09:33:39.442Z,10.47
2018-04-22T09:36:07.034Z,9.20
2018-04-22T09:38:34.614Z,11.50
2018-04-22T09:41:02.285Z,11.03
2018-04-22T09:43:30.820Z,10.73
2018-04-22T09:45:58.503Z,10.90
2018-04-22T09:48:26.070Z,9.90
2018-04-22T09:50:53.633Z,13.20
2018-04-22T09:53:21.405Z,9.30
2018-04-22T09:55:48.935Z,11.63
2018-04-22T09:58:16.619Z,8.70
2018-04-22T10:00:47.122Z,9.50
2018-04-22T10:03:14.890Z,8.60
2018-04-22T10:05:48.212Z,9.03
2018-04-22T10:08:16.689Z,8.07
2018-04-22T10:10:45.128Z,7.97
2018-04-22T10:13:12.692Z,10.67
2018-04-22T10:15:40.361Z,9.80
2018-04-22T10:18:07.921Z,8.77
2018-04-22T10:20:35.525Z,10.00
2018-04-22T10:23:03.254Z,10.77
2018-04-22T10:25:30.824Z,8.33
2018-04-22T10:27:59.183Z,19.00
2018-04-22T10:30:27.511Z,8.60
2018-04-22T10:32:55.261Z,9.00
2018-04-22T10:35:22.833Z,8.93
2018-04-22T10:37:50.472Z,8.07
2018-04-22T10:40:18.317Z,9.23
2018-04-22T10:42:45.882Z,12.20
2018-04-22T10:45:14.222Z,15.57
2018-04-22T10:47:41.913Z,12.27
2018-04-22T10:50:09.626Z,9.00
2018-04-22T10:52:37.236Z,9.47
2018-04-22T10:55:05.593Z,8.23
2018-04-22T10:57:33.173Z,8.23
2018-04-22T11:00:01.744Z,7.10
2018-04-22T11:02:29.309Z,7.03
2018-04-22T11:04:56.906Z,7.10
2018-04-22T11:07:24.471Z,6.43
2018-04-22T11:09:52.105Z,7.40
2018-04-22T11:12:20.440Z,6.97
2018-04-22T11:14:48.006Z,8.70
2018-04-22T11:17:16.452Z,7.27
2018-04-22T11:19:44.031Z,11.30
2018-04-22T11:22:11.626Z,7.00
2018-04-22T11:24:40.145Z,7.30
2018-04-22T11:27:07.713Z,6.93
2018-04-22T11:29:35.305Z,12.87
2018-04-22T11:32:02.893Z,6.30
2018-04-22T11:34:31.499Z,6.47
2018-04-22T11:36:59.097Z,7.80
2018-04-22T11:39:27.438Z,6.63
2018-04-22T11:41:55.037Z,13.13
2018-04-22T11:44:22.653Z,12.87
2018-04-22T11:46:50.392Z,8.47
2018-04-22T11:49:18.767Z,7.23
2018-04-22T11:51:47.108Z,6.90
2018-04-22T11:54:14.713Z,7.60
2018-04-22T11:56:42.274Z,7.70
2018-04-22T11:59:09.869Z,6.70
2018-04-22T12:01:37.441Z,6.17
2018-04-22T12:04:05.043Z,8.73
2018-04-22T12:06:33.413Z,8.00
2018-04-22T12:09:01.924Z,6.70
2018-04-22T12:11:29.506Z,6.33
2018-04-22T12:13:57.102Z,6.00
2018-04-22T12:16:25.449Z,7.20
2018-04-22T12:18:53.049Z,6.00
2018-04-22T12:21:21.501Z,5.10
2018-04-22T12:23:49.096Z,8.63
2018-04-22T12:26:16.751Z,6.13
2018-04-22T12:28:45.144Z,8.20
2018-04-22T12:31:12.769Z,5.87
2018-04-22T12:33:41.377Z,5.90
2018-04-22T12:36:09.090Z,8.30
2018-04-22T12:38:36.749Z,5.77
2018-04-22T12:41:04.329Z,6.13
2018-04-22T12:43:31.899Z,7.63
2018-04-22T12:46:00.310Z,5.60
2018-04-22T12:48:27.903Z,7.43
2018-04-22T12:50:55.505Z,6.47
2018-04-22T12:53:23.937Z,6.53
2018-04-22T12:55:51.514Z,5.83
2018-04-22T12:58:20.637Z,6.57
2018-04-22T13:00:48.957Z,5.17
2018-04-22T13:03:16.561Z,5.83
2018-04-22T13:05:44.992Z,5.77
2018-04-22T13:08:12.634Z,5.60
2018-04-22T13:10:40.498Z,7.43
2018-04-22T13:13:08.157Z,6.37
2018-04-22T13:15:35.710Z,6.43
2018-04-22T13:18:03.308Z,7.00
2018-04-22T13:20:30.965Z,10.70
2018-04-22T13:22:58.725Z,5.60
2018-04-22T13:25:26.279Z,5.00
2018-04-22T13:27:54.033Z,8.30
2018-04-22T13:30:21.580Z,6.80
2018-04-22T13:32:49.247Z,5.70
2018-04-22T13:35:16.813Z,10.67
2018-04-22T13:37:44.417Z,6.67
2018-04-22T13:40:12.885Z,6.73
2018-04-22T13:42:40.453Z,7.40
2018-04-22T13:45:08.043Z,6.70
2018-04-22T13:47:35.743Z,7.57
2018-04-22T13:50:03.478Z,5.70
2018-04-22T13:52:31.047Z,9.37
2018-04-22T13:54:58.664Z,6.33
2018-04-22T13:57:27.020Z,5.23
2018-04-22T13:59:54.776Z,6.03
2018-04-22T14:02:22.337Z,7.20
2018-04-22T14:04:50.050Z,5.47
2018-04-22T14:07:17.646Z,6.40
2018-04-22T14:09:45.270Z,4.63
2018-04-22T14:12:12.847Z,7.27
2018-04-22T14:14:40.700Z,5.40
2018-04-22T14:17:08.269Z,5.97
2018-04-22T14:19:35.976Z,5.50
2018-04-22T14:22:04.425Z,4.97
2018-04-22T14:24:32.008Z,5.00
2018-04-22T14:26:59.585Z,4.33
2018-04-22T14:29:27.936Z,7.97
2018-04-22T14:31:55.536Z,8.40
2018-04-22T14:34:23.101Z,4.40
2018-04-22T14:36:50.690Z,9.47
2018-04-22T14:39:18.260Z,4.80
2018-04-22T14:41:45.849Z,4.97
2018-04-22T14:44:26.267Z,7.37
2018-04-22T14:46:53.885Z,4.43
2018-04-22T14:49:21.721Z,4.40
2018-04-22T14:51:50.082Z,5.17
2018-04-22T14:54:17.693Z,7.70
2018-04-22T14:56:45.285Z,4.60
2018-04-22T14:59:12.867Z,8.67
2018-04-22T15:01:40.455Z,5.93
2018-04-22T15:04:08.066Z,4.13
2018-04-22T15:06:35.634Z,4.63
2018-04-22T15:09:03.215Z,7.57
2018-04-22T15:11:31.541Z,5.03
2018-04-22T15:13:59.193Z,4.30
2018-04-22T15:16:26.759Z,5.10
2018-04-22T15:18:54.353Z,8.10
2018-04-22T15:21:22.045Z,4.17
2018-04-22T15:23:50.465Z,4.37
2018-04-22T15:26:18.044Z,8.70
2018-04-22T15:28:45.722Z,4.23
2018-04-22T15:31:14.101Z,6.40
2018-04-22T15:33:42.482Z,4.53
2018-04-22T15:36:10.825Z,5.17
2018-04-22T15:38:38.446Z,4.90
2018-04-22T15:41:06.030Z,6.33
2018-04-22T15:43:33.739Z,5.60
2018-04-22T15:46:02.072Z,6.60
2018-04-22T15:48:29.776Z,5.93
2018-04-22T15:50:58.133Z,5.00
2018-04-22T15:53:25.698Z,4.90
2018-04-22T15:55:53.309Z,4.70
2018-04-22T15:58:20.926Z,5.10
2018-04-22T16:00:48.531Z,4.80
2018-04-22T16:03:16.188Z,4.90
2018-04-22T16:05:43.781Z,5.63
2018-04-22T16:08:11.537Z,6.97
2018-04-22T16:10:39.107Z,7.63
2018-04-22T16:13:06.685Z,4.63
2018-04-22T16:15:35.121Z,5.37
2018-04-22T16:18:02.702Z,5.20
2018-04-22T16:20:30.269Z,5.07
2018-04-22T16:22:57.844Z,4.73
2018-04-22T16:25:26.177Z,7.70
2018-04-22T16:27:53.938Z,5.83
2018-04-22T16:30:21.488Z,5.50
2018-04-22T16:32:49.187Z,5.40
2018-04-22T16:35:16.948Z,4.50
2018-04-22T16:37:44.476Z,8.30
2018-04-22T16:40:12.142Z,5.00
2018-04-22T16:42:39.838Z,5.63
2018-04-22T16:45:07.448Z,6.70
2018-04-22T16:47:35.039Z,5.30
2018-04-22T16:50:02.653Z,5.90
2018-04-22T16:52:30.389Z,4.80
2018-04-22T16:54:58.725Z,5.00
2018-04-22T16:57:26.337Z,10.20
2018-04-22T16:59:53.926Z,7.77
2018-04-22T17:02:21.600Z,8.87
2018-04-22T17:04:49.218Z,4.73
2018-04-22T17:07:16.790Z,4.87
2018-04-22T17:09:44.609Z,9.13
2018-04-22T17:12:12.185Z,5.50
2018-04-22T17:14:40.557Z,5.03
2018-04-22T17:17:08.894Z,5.37
2018-04-22T17:19:36.515Z,10.07
2018-04-22T17:22:04.225Z,6.00
2018-04-22T17:24:31.813Z,7.10
2018-04-22T17:27:00.154Z,9.03
2018-04-22T17:29:27.757Z,6.30
2018-04-22T17:31:56.120Z,9.00
2018-04-22T17:34:23.887Z,7.43
2018-04-22T17:36:52.249Z,7.23
2018-04-22T17:39:19.835Z,7.70
2018-04-22T17:41:48.177Z,8.73
2018-04-22T17:44:15.853Z,6.20
2018-04-22T17:46:43.572Z,9.37
2018-04-22T17:49:11.153Z,11.93
2018-04-22T17:51:38.893Z,12.53
2018-04-22T17:54:06.486Z,9.33
2018-04-22T17:56:34.106Z,10.03
2018-04-22T17:59:01.686Z,13.27
2018-04-22T18:01:29.405Z,12.50
2018-04-22T18:03:57.030Z,9.63
2018-04-22T18:06:24.622Z,11.83
2018-04-22T18:08:52.429Z,12.03
2018-04-22T18:11:19.986Z,10.07
2018-04-22T18:13:47.625Z,7.80
2018-04-22T18:16:15.660Z,7.80
2018-04-22T18:18:43.278Z,8.97
2018-04-22T18:21:11.014Z,7.63
2018-04-22T18:23:38.609Z,10.00
2018-04-22T18:26:06.298Z,11.70
2018-04-22T18:28:34.849Z,12.33
2018-04-22T18:31:02.574Z,12.30
2018-04-22T18:33:30.201Z,7.93
2018-04-22T18:35:58.647Z,10.20
2018-04-22T18:38:26.239Z,11.93
2018-04-22T18:40:54.682Z,5.37
2018-04-22T18:43:22.278Z,15.53
2018-04-22T18:45:50.641Z,5.33
2018-04-22T18:48:18.389Z,5.73
2018-04-22T18:50:46.121Z,4.93
2018-04-22T18:53:13.829Z,22.20
2018-04-22T18:55:41.652Z,5.23
2018-04-22T18:58:09.225Z,10.63
2018-04-22T19:00:36.806Z,6.10
2018-04-22T19:03:04.384Z,5.40
2018-04-22T19:05:32.753Z,13.13
2018-04-22T19:08:01.133Z,4.50
2018-04-22T19:10:29.577Z,4.53
2018-04-22T19:12:57.147Z,11.27
2018-04-22T19:15:24.833Z,6.13
2018-04-22T19:17:53.200Z,5.60
2018-04-22T19:20:20.793Z,5.33
2018-04-22T19:22:48.441Z,5.80
2018-04-22T19:25:16.771Z,3.97
2018-04-22T19:27:44.393Z,7.90
2018-04-22T19:30:11.977Z,6.03
2018-04-22T19:32:39.564Z,5.00
2018-04-22T19:35:07.125Z,3.63
2018-04-22T19:37:34.790Z,5.87
2018-04-22T19:40:02.496Z,9.40
2018-04-22T19:42:30.126Z,6.57
2018-04-22T19:44:58.470Z,5.27
2018-04-22T19:47:26.173Z,4.50
2018-04-22T19:49:53.814Z,8.23
2018-04-22T19:52:22.234Z,6.60
2018-04-22T19:54:49.850Z,4.63
2018-04-22T19:57:18.441Z,5.63
2018-04-22T19:59:46.891Z,5.50
2018-04-22T20:02:14.475Z,4.83
2018-04-22T20:04:42.870Z,7.10
2018-04-22T20:07:10.463Z,4.97
2018-04-22T20:09:38.075Z,10.27
2018-04-22T20:12:06.410Z,4.37
2018-04-22T20:14:34.245Z,4.83
2018-04-22T20:17:01.829Z,5.87
2018-04-22T20:19:29.774Z,7.53
2018-04-22T20:21:57.518Z,7.20
2018-04-22T20:24:25.166Z,8.20
2018-04-22T20:26:52.744Z,9.60
2018-04-22T20:29:20.343Z,7.90
2018-04-22T20:31:48.004Z,5.83
2018-04-22T20:34:15.649Z,5.33
2018-04-22T20:36:43.222Z,7.67
2018-04-22T20:39:10.805Z,6.80
2018-04-22T20:41:38.442Z,6.30
2018-04-22T20:44:06.042Z,9.10
2018-04-22T20:46:34.447Z,6.17
2018-04-22T20:49:02.110Z,4.43
2018-04-22T20:51:29.713Z,4.43
2018-04-22T20:53:57.286Z,7.47
2018-04-22T20:56:24.875Z,8.60
2018-04-22T20:58:52.506Z,5.40
2018-04-22T21:01:20.226Z,4.90
2018-04-22T21:03:47.830Z,5.80
2018-04-22T21:06:16.161Z,7.27
2018-04-22T21:08:43.928Z,5.03
2018-04-22T21:11:11.469Z,5.10
2018-04-22T21:13:39.134Z,7.17
2018-04-22T21:16:06.842Z,6.80
2018-04-22T21:18:34.580Z,4.53
2018-04-22T21:21:02.144Z,4.07
2018-04-22T21:23:29.737Z,6.23
2018-04-22T21:25:58.282Z,4.33
2018-04-22T21:28:25.910Z,4.27
2018-04-22T21:30:53.498Z,3.67
2018-04-22T21:33:21.132Z,4.43
2018-04-22T21:35:48.841Z,4.03
2018-04-22T21:38:16.380Z,4.00
2018-04-22T21:40:44.029Z,4.60
2018-04-22T21:43:11.825Z,8.50
2018-04-22T21:45:39.393Z,3.73
2018-04-22T21:48:07.741Z,7.63
2018-04-22T21:50:35.421Z,4.20
2018-04-22T21:53:03.786Z,3.70
2018-04-22T21:55:31.361Z,3.90
2018-04-22T21:57:59.821Z,5.17
2018-04-22T22:00:27.411Z,3.73
2018-04-22T22:02:55.757Z,4.10
2018-04-22T22:05:23.485Z,4.10
2018-04-22T22:07:51.229Z,3.60
2018-04-22T22:10:18.834Z,4.63
2018-04-22T22:12:46.431Z,4.47
2018-04-22T22:15:14.758Z,3.53
2018-04-22T22:17:42.357Z,4.70
2018-04-22T22:20:10.828Z,4.17
2018-04-22T22:22:38.398Z,5.43
2018-04-22T22:25:06.773Z,4.73
2018-04-22T22:27:35.241Z,4.23
2018-04-22T22:30:02.962Z,6.10
2018-04-22T22:32:30.513Z,5.67
2018-04-22T22:34:58.110Z,4.13
2018-04-22T22:37:25.677Z,5.80
2018-04-22T22:39:53.429Z,4.37
2018-04-22T22:42:20.993Z,7.53
2018-04-22T22:44:48.668Z,5.37
2018-04-22T22:47:17.070Z,6.10
2018-04-22T22:49:44.686Z,6.70
2018-04-22T22:52:13.789Z,5.90
2018-04-22T22:54:41.381Z,8.10
2018-04-22T22:57:09.125Z,6.17
2018-04-22T22:59:37.470Z,5.33
2018-04-22T23:02:05.056Z,4.17
2018-04-22T23:04:33.448Z,4.20
2018-04-22T23:07:01.833Z,6.63
2018-04-22T23:09:29.388Z,5.90
2018-04-22T23:11:57.754Z,5.00
2018-04-22T23:14:26.069Z,7.57
2018-04-22T23:16:53.658Z,7.93
2018-04-22T23:19:21.357Z,5.30
2018-04-22T23:21:49.728Z,5.00
2018-04-22T23:24:18.044Z,5.10
2018-04-22T23:26:45.650Z,4.20
2018-04-22T23:29:13.989Z,4.53
2018-04-22T23:31:41.546Z,6.07
2018-04-22T23:34:09.389Z,8.27
2018-04-22T23:36:36.949Z,4.47
2018-04-22T23:39:04.546Z,7.50
2018-04-22T23:41:32.173Z,5.13
2018-04-22T23:43:59.753Z,4.43
2018-04-22T23:46:27.302Z,7.23
2018-04-22T23:48:54.902Z,5.60
2018-04-22T23:51:23.288Z,7.17
2018-04-22T23:53:51.653Z,6.80
2018-04-22T23:56:19.320Z,7.10
2018-04-22T23:58:47.072Z,7.80
